Time;durP1;ratioP1;P1;durP2;ratioP2;P2;SDS_P1;SDS_P2;PMS_P1;PMS_P2;Temp;Humidity;BMP_temperature;BMP_pressure;BME280_temperature;BME280_humidity;BME280_pressure;Samples;Min_cycle;Max_cycle;Signal;HPM_P1;HPM_P2
2022/06/11 00:00:23;;;;;;;7.05;4.03;;;17.90;99.90;;;;;;5074380;28;20048;-55
2022/06/11 00:02:49;;;;;;;6.90;5.03;;;17.80;99.90;;;;;;5074267;28;20113;-55
2022/06/11 00:05:15;;;;;;;5.03;4.30;;;17.90;99.90;;;;;;5074272;28;20048;-54
2022/06/11 00:07:42;;;;;;;6.57;4.70;;;17.80;99.90;;;;;;5074182;28;20102;-54
2022/06/11 00:10:09;;;;;;;6.03;4.38;;;17.80;99.90;;;;;;5056030;28;20083;-54
2022/06/11 00:12:35;;;;;;;6.97;4.45;;;17.70;99.90;;;;;;5060175;28;20037;-55
2022/06/11 00:15:01;;;;;;;5.55;4.32;;;17.70;99.90;;;;;;5074056;28;20048;-55
2022/06/11 00:17:27;;;;;;;7.95;4.30;;;17.70;99.90;;;;;;5073742;28;20064;-55
2022/06/11 00:19:54;;;;;;;8.57;4.30;;;17.60;99.90;;;;;;5073899;28;20055;-56
2022/06/11 00:22:21;;;;;;;9.75;5.30;;;17.50;99.90;;;;;;5073650;28;20045;-55
2022/06/11 00:24:47;;;;;;;8.98;5.00;;;17.40;99.90;;;;;;5073850;28;20078;-54
2022/06/11 00:27:17;;;;;;;7.97;5.03;;;17.40;99.90;;;;;;5073818;28;20048;-56
2022/06/11 00:29:44;;;;;;;8.23;4.30;;;17.40;99.90;;;;;;5073980;28;20044;-56
2022/06/11 00:32:11;;;;;;;7.68;4.93;;;17.30;99.90;;;;;;5073288;28;20499;-56
2022/06/11 00:34:39;;;;;;;12.73;5.05;;;17.20;99.90;;;;;;5073597;28;20033;-56
2022/06/11 00:37:05;;;;;;;8.95;4.43;;;17.20;99.90;;;;;;5073587;28;20120;-54
2022/06/11 00:39:35;;;;;;;7.78;5.18;;;17.20;99.90;;;;;;5073329;28;20097;-55
2022/06/11 00:42:07;;;;;;;9.10;5.00;;;17.10;99.90;;;;;;5073565;28;20055;-55
2022/06/11 00:44:33;;;;;;;10.48;4.90;;;17.00;99.90;;;;;;5073398;28;20052;-56
2022/06/11 00:47:05;;;;;;;8.57;4.43;;;17.00;99.90;;;;;;5073381;28;20114;-55
2022/06/11 00:49:44;;;;;;;12.55;4.57;;;16.90;99.90;;;;;;5071924;28;20048;-57
2022/06/11 00:52:32;;;;;;;12.85;4.78;;;16.90;99.90;;;;;;5072713;28;20052;-55
2022/06/11 00:55:10;;;;;;;6.65;4.10;;;16.90;99.90;;;;;;5073472;28;20076;-55
2022/06/11 00:57:41;;;;;;;10.30;4.75;;;16.80;99.90;;;;;;5072928;28;20059;-53
2022/06/11 01:00:21;;;;;;;7.22;3.80;;;16.80;99.90;;;;;;5055175;28;20123;-56
2022/06/11 01:02:47;;;;;;;7.35;3.95;;;16.60;99.90;;;;;;5072997;28;20044;-55
2022/06/11 01:05:25;;;;;;;9.88;4.00;;;16.60;99.90;;;;;;5055444;28;20131;-54
2022/06/11 01:08:09;;;;;;;9.45;4.18;;;16.50;99.90;;;;;;5072996;28;20036;-55
2022/06/11 01:10:41;;;;;;;7.47;3.38;;;16.50;99.90;;;;;;5073090;28;20094;-55
2022/06/11 01:13:40;;;;;;;9.50;3.60;;;16.40;99.90;;;;;;5072532;28;20043;-54
2022/06/11 01:16:19;;;;;;;7.63;3.05;;;16.40;99.90;;;;;;5072550;28;20037;-55
2022/06/11 01:19:00;;;;;;;9.55;3.33;;;16.30;99.90;;;;;;5072543;28;20048;-55
2022/06/11 01:21:52;;;;;;;10.80;4.38;;;16.30;99.90;;;;;;5059423;28;20084;-55
2022/06/11 01:24:40;;;;;;;6.90;2.78;;;16.30;99.90;;;;;;5072579;28;20087;-56
2022/06/11 01:27:22;;;;;;;14.73;3.15;;;16.30;99.90;;;;;;5073086;28;20044;-54
2022/06/11 01:29:52;;;;;;;8.98;2.50;;;16.20;99.90;;;;;;5072300;28;20048;-54
2022/06/11 01:32:40;;;;;;;10.63;2.88;;;16.10;99.90;;;;;;5072942;28;20368;-53
2022/06/11 01:35:16;;;;;;;7.90;2.30;;;16.10;99.90;;;;;;5060047;28;20152;-55
2022/06/11 01:37:57;;;;;;;9.88;2.70;;;16.10;99.90;;;;;;5072547;28;20051;-54
2022/06/11 01:40:39;;;;;;;9.77;3.13;;;16.00;99.90;;;;;;5072011;28;20487;-55
2022/06/11 01:43:35;;;;;;;9.32;2.03;;;16.00;99.90;;;;;;5072255;28;20482;-55
2022/06/11 01:46:04;;;;;;;10.50;2.50;;;15.90;99.90;;;;;;5072216;28;20043;-55
2022/06/11 01:48:30;;;;;;;;;;;15.90;99.90;;;;;;5072793;28;20532;-54
2022/06/11 01:51:29;;;;;;;8.07;2.20;;;15.80;99.90;;;;;;5071849;28;19920;-55
2022/06/11 01:54:02;;;;;;;8.48;2.35;;;15.70;99.90;;;;;;5054016;28;20074;-55
2022/06/11 01:56:54;;;;;;;12.25;2.72;;;15.70;99.90;;;;;;5058967;28;20070;-55
2022/06/11 01:59:48;;;;;;;12.02;2.67;;;15.70;99.90;;;;;;5071674;28;20048;-55
2022/06/11 02:02:34;;;;;;;8.88;1.85;;;15.70;99.90;;;;;;5071855;28;20080;-54
2022/06/11 02:05:08;;;;;;;12.95;2.58;;;15.70;99.90;;;;;;5016446;28;20099;-55
2022/06/11 02:08:02;;;;;;;12.70;1.98;;;15.60;99.90;;;;;;5029730;28;20046;-55
2022/06/11 02:10:37;;;;;;;8.75;2.45;;;15.60;99.90;;;;;;5014953;28;20069;-54
2022/06/11 02:13:22;;;;;;;6.68;1.92;;;15.50;99.90;;;;;;5029607;28;20396;-54
2022/06/11 02:16:00;;;;;;;9.77;2.13;;;15.50;99.90;;;;;;5029710;28;20049;-55
2022/06/11 02:18:27;;;;;;;7.93;1.85;;;15.50;99.90;;;;;;5029699;28;20469;-55
2022/06/11 02:21:07;;;;;;;11.38;1.77;;;15.40;99.90;;;;;;5029665;28;20056;-55
2022/06/11 02:23:49;;;;;;;7.60;1.80;;;15.40;99.90;;;;;;5029757;28;20053;-56
2022/06/11 02:26:20;;;;;;;14.25;2.38;;;15.40;99.90;;;;;;5029607;28;20128;-56
2022/06/11 02:28:48;;;;;;;11.45;2.83;;;15.40;99.90;;;;;;5029649;28;20115;-56
2022/06/11 02:31:19;;;;;;;8.98;2.60;;;15.40;99.90;;;;;;5029408;28;20377;-55
2022/06/11 02:33:45;;;;;;;7.25;2.00;;;15.40;99.90;;;;;;5029700;28;20041;-55
2022/06/11 02:36:10;;;;;;;10.90;2.60;;;15.30;99.90;;;;;;5027802;28;20427;-55
2022/06/11 02:38:37;;;;;;;12.90;2.30;;;15.30;99.90;;;;;;5029448;28;20053;-55
2022/06/11 02:41:10;;;;;;;9.82;2.88;;;15.30;99.90;;;;;;5030968;28;20595;-55
2022/06/11 02:43:36;;;;;;;6.07;2.35;;;15.20;99.90;;;;;;5065344;28;20079;-55
2022/06/11 02:46:40;;;;;;;12.57;2.22;;;15.20;99.90;;;;;;5064445;28;20050;-54
2022/06/11 02:48:50;;;;;;;10.25;2.40;;;15.10;99.90;;;;;;5071341;28;20080;-55
2022/06/11 02:51:17;;;;;;;11.88;2.40;;;15.10;99.90;;;;;;5071550;28;20044;-55
2022/06/11 02:53:42;;;;;;;8.32;2.30;;;15.10;99.90;;;;;;5071391;28;20124;-54
2022/06/11 02:56:08;;;;;;;14.73;2.70;;;15.10;99.90;;;;;;5071405;28;20131;-55
2022/06/11 02:58:33;;;;;;;8.48;2.33;;;15.00;99.90;;;;;;5071664;28;20091;-55
2022/06/11 03:00:59;;;;;;;7.18;2.05;;;15.00;99.90;;;;;;5071839;28;20051;-54
2022/06/11 03:03:25;;;;;;;9.50;2.40;;;15.00;99.90;;;;;;5071356;28;20048;-55
2022/06/11 03:05:50;;;;;;;10.82;2.30;;;15.00;99.90;;;;;;5071427;28;20048;-55
2022/06/11 03:08:16;;;;;;;9.45;2.40;;;14.90;99.90;;;;;;5071885;28;20430;-53
2022/06/11 03:10:41;;;;;;;12.55;3.03;;;14.90;99.90;;;;;;5070947;28;20534;-55
2022/06/11 03:13:08;;;;;;;7.28;2.15;;;15.00;99.90;;;;;;5071348;28;20471;-55
2022/06/11 03:15:34;;;;;;;10.07;2.88;;;14.90;99.90;;;;;;5073345;28;20037;-55
2022/06/11 03:18:00;;;;;;;8.63;2.30;;;14.90;99.90;;;;;;5074991;28;20061;-55
2022/06/11 03:20:28;;;;;;;7.78;2.03;;;14.80;99.90;;;;;;5056965;28;20436;-54
2022/06/11 03:22:54;;;;;;;7.72;2.80;;;14.90;99.90;;;;;;5075004;28;20529;-56
2022/06/11 03:25:20;;;;;;;9.35;2.63;;;14.80;99.90;;;;;;5073955;28;20044;-55
2022/06/11 03:27:47;;;;;;;11.75;2.63;;;14.90;99.90;;;;;;5074891;28;20040;-55
2022/06/11 03:30:14;;;;;;;10.10;2.55;;;14.80;99.90;;;;;;5075172;28;20076;-55
2022/06/11 03:32:40;;;;;;;7.45;2.83;;;14.80;99.90;;;;;;5074305;28;20554;-54
2022/06/11 03:35:07;;;;;;;10.45;2.60;;;14.80;99.90;;;;;;5074584;28;20386;-53
2022/06/11 03:37:33;;;;;;;10.65;2.40;;;14.80;99.90;;;;;;5074743;28;20087;-55
2022/06/11 03:39:59;;;;;;;10.25;2.88;;;14.70;99.90;;;;;;5074483;28;20512;-53
2022/06/11 03:42:25;;;;;;;14.65;4.25;;;14.80;99.90;;;;;;5074543;28;20497;-55
2022/06/11 03:44:51;;;;;;;7.45;2.80;;;14.80;99.90;;;;;;5074104;28;20494;-55
2022/06/11 03:47:18;;;;;;;7.30;2.22;;;14.70;99.90;;;;;;5074719;28;20048;-55
2022/06/11 03:49:44;;;;;;;9.52;3.15;;;14.70;99.90;;;;;;5074044;28;20119;-55
2022/06/11 03:52:10;;;;;;;10.52;2.90;;;14.70;99.90;;;;;;5074272;28;20183;-55
2022/06/11 03:54:36;;;;;;;9.02;2.78;;;14.70;99.90;;;;;;5074403;28;20399;-55
2022/06/11 03:57:03;;;;;;;9.82;3.10;;;14.70;99.90;;;;;;5074474;28;20043;-55
2022/06/11 03:59:28;;;;;;;9.68;3.05;;;14.70;99.90;;;;;;5074038;28;20059;-55
2022/06/11 04:01:54;;;;;;;13.02;3.17;;;14.70;99.90;;;;;;5074150;28;20478;-55
2022/06/11 04:04:20;;;;;;;12.15;3.58;;;14.70;99.90;;;;;;5074044;28;20428;-56
2022/06/11 04:06:50;;;;;;;14.38;3.05;;;14.70;99.90;;;;;;5056180;28;20098;-54
2022/06/11 04:09:20;;;;;;;13.07;3.40;;;14.70;99.90;;;;;;5074149;28;20047;-55
2022/06/11 04:11:46;;;;;;;14.25;3.90;;;14.70;99.90;;;;;;5073770;28;20074;-54
2022/06/11 04:14:12;;;;;;;11.45;3.50;;;14.80;99.90;;;;;;5074157;28;20048;-55
2022/06/11 04:16:43;;;;;;;14.93;3.78;;;14.80;99.90;;;;;;5073901;28;20045;-54
2022/06/11 04:19:14;;;;;;;9.05;2.92;;;14.90;99.90;;;;;;5073755;28;20049;-54
2022/06/11 04:21:40;;;;;;;15.93;3.60;;;14.90;99.90;;;;;;5074377;28;20060;-55
2022/06/11 04:24:07;;;;;;;14.90;3.65;;;14.90;99.90;;;;;;5073968;28;20045;-55
2022/06/11 04:26:37;;;;;;;13.57;3.40;;;14.90;99.90;;;;;;5054351;28;20045;-54
2022/06/11 04:29:05;;;;;;;9.77;2.80;;;14.90;99.90;;;;;;5073953;28;20045;-54
2022/06/11 04:31:33;;;;;;;14.00;4.03;;;15.00;99.90;;;;;;5073649;28;20044;-56
2022/06/11 04:33:59;;;;;;;14.52;3.03;;;15.00;99.90;;;;;;5073574;28;20050;-53
2022/06/11 04:36:27;;;;;;;15.00;3.85;;;15.10;99.90;;;;;;5073636;28;20037;-54
2022/06/11 04:38:53;;;;;;;11.20;2.63;;;15.10;99.90;;;;;;5073584;28;20076;-54
2022/06/11 04:41:20;;;;;;;14.90;3.30;;;15.20;99.90;;;;;;5073713;28;20037;-55
2022/06/11 04:43:45;;;;;;;10.65;2.92;;;15.30;99.90;;;;;;5073369;28;20092;-54
2022/06/11 04:46:11;;;;;;;14.75;3.00;;;15.20;99.90;;;;;;5073650;28;20083;-54
2022/06/11 04:48:38;;;;;;;20.00;3.47;;;15.30;99.90;;;;;;5074025;28;20048;-55
2022/06/11 04:51:04;;;;;;;13.00;4.50;;;15.30;99.90;;;;;;5073529;28;20040;-55
2022/06/11 04:53:30;;;;;;;20.10;4.97;;;15.40;99.90;;;;;;5055510;28;20040;-55
2022/06/11 04:55:56;;;;;;;15.85;3.63;;;15.40;99.90;;;;;;5072992;28;20079;-55
2022/06/11 04:58:22;;;;;;;14.75;4.03;;;15.40;99.90;;;;;;5072626;28;20394;-55
2022/06/11 05:00:48;;;;;;;11.43;3.47;;;15.50;99.90;;;;;;5073083;28;20048;-56
2022/06/11 05:03:14;;;;;;;14.43;4.15;;;15.60;99.90;;;;;;5073055;28;20175;-55
2022/06/11 05:05:39;;;;;;;13.95;3.03;;;15.60;99.90;;;;;;5073267;28;20123;-55
2022/06/11 05:08:05;;;;;;;18.95;4.70;;;15.60;99.90;;;;;;5072855;28;20048;-54
2022/06/11 05:10:34;;;;;;;13.93;3.42;;;15.70;99.90;;;;;;5072713;28;20511;-54
2022/06/11 05:13:00;;;;;;;18.48;3.55;;;15.70;99.90;;;;;;5072971;28;20049;-55
2022/06/11 05:15:26;;;;;;;14.70;3.40;;;15.80;99.90;;;;;;5072916;28;20040;-54
2022/06/11 05:17:52;;;;;;;10.68;3.30;;;15.80;99.90;;;;;;5072730;28;20053;-56
2022/06/11 05:20:19;;;;;;;16.23;3.45;;;15.90;99.90;;;;;;5073050;28;20387;-55
2022/06/11 05:22:46;;;;;;;17.42;3.83;;;15.90;99.90;;;;;;5072689;28;20483;-55
2022/06/11 05:25:14;;;;;;;17.60;4.20;;;15.90;99.90;;;;;;5072674;28;20478;-55
2022/06/11 05:27:42;;;;;;;17.38;3.88;;;16.00;99.90;;;;;;5072693;28;20072;-54
2022/06/11 05:30:15;;;;;;;17.85;4.10;;;15.90;99.90;;;;;;5072704;28;20099;-55
2022/06/11 05:32:42;;;;;;;17.65;5.00;;;16.00;99.90;;;;;;5059789;28;20127;-55
2022/06/11 05:35:12;;;;;;;15.98;3.42;;;16.10;99.90;;;;;;5072757;28;20044;-55
2022/06/11 05:37:38;;;;;;;14.02;3.90;;;16.20;99.90;;;;;;5072445;28;20084;-54
2022/06/11 05:40:06;;;;;;;20.15;4.25;;;16.20;99.90;;;;;;5072773;28;20399;-54
2022/06/11 05:42:32;;;;;;;22.35;5.32;;;16.20;99.90;;;;;;5072334;28;20040;-55
2022/06/11 05:44:58;;;;;;;22.95;5.38;;;16.30;99.90;;;;;;5072804;28;20048;-55
2022/06/11 05:47:26;;;;;;;21.50;4.45;;;16.30;99.90;;;;;;5072628;28;20044;-54
2022/06/11 05:49:58;;;;;;;24.05;4.40;;;16.30;99.90;;;;;;5054482;28;20371;-55
2022/06/11 05:52:28;;;;;;;20.63;4.68;;;16.40;99.90;;;;;;5072602;28;20076;-56
2022/06/11 05:54:55;;;;;;;22.50;5.07;;;16.50;99.90;;;;;;5072125;28;20036;-55
2022/06/11 05:57:24;;;;;;;19.30;4.65;;;16.50;99.90;;;;;;5072215;28;20426;-55
2022/06/11 05:59:58;;;;;;;27.90;4.45;;;16.50;99.90;;;;;;5072357;28;20040;-55
2022/06/11 06:02:25;;;;;;;22.60;5.15;;;16.60;99.90;;;;;;5071553;28;20475;-55
2022/06/11 06:04:50;;;;;;;17.80;4.97;;;16.70;99.90;;;;;;5071644;28;20044;-56
2022/06/11 06:07:16;;;;;;;21.52;4.97;;;16.70;99.90;;;;;;5072260;28;20387;-52
2022/06/11 06:09:41;;;;;;;19.35;5.68;;;16.80;99.90;;;;;;5072314;28;20052;-54
2022/06/11 06:12:08;;;;;;;20.52;5.05;;;16.80;99.90;;;;;;5072095;28;20037;-53
2022/06/11 06:14:34;;;;;;;26.08;5.55;;;17.00;99.90;;;;;;5072007;28;20036;-55
2022/06/11 06:17:00;;;;;;;25.23;5.68;;;17.00;99.90;;;;;;5071966;28;20044;-55
2022/06/11 06:19:25;;;;;;;23.80;5.60;;;17.10;99.90;;;;;;5071760;28;20422;-54
2022/06/11 06:21:51;;;;;;;22.08;5.70;;;17.10;99.90;;;;;;5071947;28;20053;-54
2022/06/11 06:24:17;;;;;;;29.25;6.05;;;17.20;99.90;;;;;;5072308;28;20383;-54
2022/06/11 06:26:42;;;;;;;25.65;5.35;;;17.30;99.90;;;;;;5072229;28;20044;-54
2022/06/11 06:29:08;;;;;;;25.80;5.13;;;17.40;99.90;;;;;;5071769;28;20075;-55
2022/06/11 06:31:35;;;;;;;23.17;5.32;;;17.40;99.90;;;;;;5072262;28;20079;-55
2022/06/11 06:34:01;;;;;;;27.15;5.80;;;17.50;99.90;;;;;;5072043;28;20037;-52
2022/06/11 06:36:29;;;;;;;27.13;5.88;;;17.60;99.90;;;;;;5072258;28;20047;-53
2022/06/11 06:38:55;;;;;;;28.65;5.90;;;17.70;99.90;;;;;;5053963;28;20123;-55
2022/06/11 06:41:21;;;;;;;23.45;6.15;;;17.80;99.90;;;;;;5072177;28;20049;-55
2022/06/11 06:43:48;;;;;;;26.30;6.10;;;17.90;99.90;;;;;;5072254;28;20048;-56
2022/06/11 06:46:15;;;;;;;23.25;6.38;;;18.00;99.90;;;;;;5072231;28;20083;-54
2022/06/11 06:48:42;;;;;;;26.23;5.93;;;18.10;99.90;;;;;;5071922;28;20081;-54
2022/06/11 06:51:08;;;;;;;20.50;5.18;;;18.10;99.90;;;;;;5074854;28;20588;-54
2022/06/11 06:53:36;;;;;;;21.15;5.10;;;18.30;99.90;;;;;;5075534;28;20040;-56
2022/06/11 06:56:03;;;;;;;26.50;5.20;;;18.30;99.90;;;;;;5057714;28;20570;-55
2022/06/11 06:58:29;;;;;;;26.27;5.88;;;18.50;99.90;;;;;;5075945;28;20579;-54
2022/06/11 07:00:55;;;;;;;20.67;4.95;;;18.60;99.90;;;;;;5075469;28;20083;-53
2022/06/11 07:03:21;;;;;;;21.15;6.55;;;18.60;99.90;;;;;;5075252;28;20454;-52
2022/06/11 07:05:46;;;;;;;25.10;5.70;;;18.60;99.90;;;;;;5075854;28;20041;-54
2022/06/11 07:08:13;;;;;;;22.55;5.88;;;18.60;99.90;;;;;;5074527;28;20106;-56
2022/06/11 07:10:39;;;;;;;31.10;6.60;;;18.80;99.90;;;;;;5074714;28;20044;-57
2022/06/11 07:13:05;;;;;;;19.63;4.68;;;19.30;99.90;;;;;;5074511;28;20045;-56
2022/06/11 07:15:31;;;;;;;25.17;5.25;;;19.40;99.90;;;;;;5074302;28;20045;-56
2022/06/11 07:17:59;;;;;;;22.20;5.75;;;19.40;99.90;;;;;;5074594;28;20049;-57
2022/06/11 07:20:28;;;;;;;21.48;4.80;;;19.70;99.90;;;;;;5074087;28;20487;-55
2022/06/11 07:22:59;;;;;;;19.77;4.72;;;19.40;99.90;;;;;;5074238;28;20106;-56
2022/06/11 07:25:26;;;;;;;25.58;5.50;;;19.30;99.90;;;;;;5074456;28;20476;-57
2022/06/11 07:27:58;;;;;;;24.52;5.63;;;19.40;99.90;;;;;;5074208;28;20521;-57
2022/06/11 07:30:27;;;;;;;19.48;4.65;;;19.60;99.90;;;;;;5074097;28;20063;-56
2022/06/11 07:33:01;;;;;;;22.63;5.72;;;19.50;99.90;;;;;;5074311;28;20051;-56
2022/06/11 07:35:27;;;;;;;21.98;5.70;;;19.90;99.90;;;;;;5073941;28;20565;-56
2022/06/11 07:37:53;;;;;;;21.60;4.78;;;20.10;99.90;;;;;;5074095;28;20091;-56
2022/06/11 07:40:21;;;;;;;24.02;5.90;;;20.20;99.90;;;;;;5072316;28;20040;-56
2022/06/11 07:42:46;;;;;;;23.98;5.45;;;20.60;99.90;;;;;;5073853;28;20048;-56
2022/06/11 07:45:13;;;;;;;27.60;6.18;;;20.80;99.90;;;;;;5073894;28;20044;-56
2022/06/11 07:47:54;;;;;;;19.60;4.63;;;20.70;99.90;;;;;;5073757;28;20426;-56
2022/06/11 07:50:23;;;;;;;22.23;6.13;;;20.70;99.90;;;;;;5073938;28;20049;-56
2022/06/11 07:52:48;;;;;;;23.45;5.05;;;20.90;99.90;;;;;;5073574;28;20056;-56
2022/06/11 07:55:14;;;;;;;17.77;4.68;;;21.00;99.90;;;;;;5055656;28;20475;-57
2022/06/11 07:57:40;;;;;;;21.98;4.63;;;21.40;99.90;;;;;;5073743;28;20514;-56
2022/06/11 08:00:09;;;;;;;19.55;5.22;;;21.40;99.90;;;;;;5055714;28;20044;-56
2022/06/11 08:02:35;;;;;;;19.02;4.97;;;21.40;99.90;;;;;;5072230;28;20055;-56
2022/06/11 08:05:00;;;;;;;19.92;5.28;;;21.50;99.90;;;;;;5073467;28;20048;-57
2022/06/11 08:07:27;;;;;;;20.80;4.63;;;21.40;99.90;;;;;;5073648;28;20546;-57
2022/06/11 08:09:55;;;;;;;19.25;4.35;;;21.40;99.90;;;;;;5073672;28;20793;-57
2022/06/11 08:12:20;;;;;;;23.17;4.97;;;21.60;99.90;;;;;;5055549;28;20578;-57
2022/06/11 08:14:46;;;;;;;17.15;4.35;;;21.70;99.90;;;;;;5073731;28;20171;-57
2022/06/11 08:17:12;;;;;;;19.42;4.68;;;21.90;99.90;;;;;;5073479;28;20037;-57
2022/06/11 08:19:37;;;;;;;19.63;4.60;;;21.90;99.90;;;;;;5055148;28;20479;-56
2022/06/11 08:22:03;;;;;;;20.17;5.13;;;21.40;99.90;;;;;;5073157;28;20041;-56
2022/06/11 08:24:29;;;;;;;18.10;4.60;;;21.30;99.90;;;;;;5073378;28;20052;-56
2022/06/11 08:26:54;;;;;;;20.67;4.70;;;21.70;99.90;;;;;;5073349;28;20044;-56
2022/06/11 08:29:20;;;;;;;16.17;3.88;;;21.90;99.90;;;;;;5073137;28;20040;-57
2022/06/11 08:31:45;;;;;;;23.30;5.15;;;22.30;99.90;;;;;;5073061;28;20069;-56
2022/06/11 08:34:11;;;;;;;16.95;4.35;;;22.30;99.90;;;;;;5072923;28;20052;-56
2022/06/11 08:36:37;;;;;;;19.90;5.00;;;22.40;99.90;;;;;;5072848;28;20052;-56
2022/06/11 08:39:02;;;;;;;31.33;5.15;;;23.00;99.90;;;;;;5073072;28;20509;-56
2022/06/11 08:41:33;;;;;;;17.27;4.60;;;22.80;99.90;;;;;;5072744;28;20376;-56
2022/06/11 08:44:01;;;;;;;17.75;4.50;;;22.90;99.90;;;;;;5055206;28;20049;-57
2022/06/11 08:46:30;;;;;;;18.63;3.83;;;22.50;99.90;;;;;;5072428;28;20032;-57
2022/06/11 08:49:04;;;;;;;18.75;5.43;;;22.90;99.90;;;;;;5072509;28;20139;-57
2022/06/11 08:51:48;;;;;;;21.05;4.32;;;23.40;99.90;;;;;;5072347;28;20055;-57
2022/06/11 08:54:18;;;;;;;23.13;5.93;;;23.50;99.90;;;;;;5072816;28;20045;-57
2022/06/11 08:57:14;;;;;;;21.63;5.90;;;23.50;99.90;;;;;;5072540;28;20052;-57
2022/06/11 08:59:47;;;;;;;19.25;4.75;;;23.70;99.90;;;;;;5072290;28;20049;-57
2022/06/11 09:02:46;;;;;;;14.43;3.70;;;23.80;99.90;;;;;;5072602;28;20044;-57
2022/06/11 09:05:17;;;;;;;17.40;4.57;;;23.70;99.90;;;;;;5072652;28;20086;-57
2022/06/11 09:07:58;;;;;;;19.58;4.03;;;23.70;99.90;;;;;;5072423;28;20075;-58
2022/06/11 09:11:01;;;;;;;17.85;3.95;;;24.00;99.90;;;;;;5072086;28;20475;-57
2022/06/11 09:13:56;;;;;;;16.25;3.92;;;23.80;99.90;;;;;;5071564;28;20056;-57
2022/06/11 09:16:56;;;;;;;12.60;3.72;;;24.00;99.90;;;;;;5072314;28;20486;-57
2022/06/11 09:19:47;;;;;;;16.10;4.32;;;24.50;99.90;;;;;;5053744;28;20098;-58
2022/06/11 09:22:33;;;;;;;20.25;4.22;;;24.10;99.90;;;;;;5071858;28;20142;-57
2022/06/11 09:25:17;;;;;;;15.75;3.78;;;24.50;99.90;;;;;;5059029;28;20391;-57
2022/06/11 09:27:52;;;;;;;15.13;3.17;;;24.60;99.90;;;;;;5071891;28;20151;-58
2022/06/11 09:30:43;;;;;;;16.70;4.07;;;24.70;99.90;;;;;;5071689;28;20539;-58
2022/06/11 09:33:25;;;;;;;16.10;3.70;;;24.70;99.90;;;;;;5071749;28;20399;-57
2022/06/11 09:36:01;;;;;;;17.23;3.22;;;24.70;99.90;;;;;;5071883;28;20055;-57
2022/06/11 09:39:05;;;;;;;16.58;3.42;;;24.60;99.90;;;;;;5072124;28;20053;-55
2022/06/11 09:41:50;;;;;;;12.50;3.88;;;24.90;99.90;;;;;;4993561;28;20046;-56
2022/06/11 09:44:39;;;;;;;11.50;2.97;;;24.90;99.90;;;;;;5009663;28;20049;-57
2022/06/11 09:47:24;;;;;;;13.48;3.17;;;25.10;99.90;;;;;;5019424;28;20045;-57
2022/06/11 09:49:56;;;;;;;11.40;3.63;;;24.90;99.90;;;;;;5029535;28;20138;-57
2022/06/11 09:52:22;;;;;;;16.92;3.60;;;25.20;99.90;;;;;;5029543;28;20184;-57
2022/06/11 09:54:57;;;;;;;16.02;4.00;;;25.40;99.90;;;;;;5029328;28;20045;-57
2022/06/11 09:57:48;;;;;;;14.05;3.17;;;25.50;99.90;;;;;;5029533;28;20551;-56
2022/06/11 10:00:31;;;;;;;12.32;2.92;;;24.50;99.90;;;;;;5029288;28;20510;-56
2022/06/11 10:05:59;;;;;;;10.10;2.90;;;24.50;99.90;;;;;;5029366;28;20041;-56
2022/06/11 10:08:57;;;;;;;12.73;2.80;;;24.40;99.90;;;;;;5029208;28;20107;-56
2022/06/11 10:11:52;;;;;;;13.57;3.38;;;23.90;99.90;;;;;;5029258;28;20053;-56
2022/06/11 10:14:31;;;;;;;12.27;3.10;;;23.70;99.90;;;;;;5019235;28;20065;-57
2022/06/11 10:17:16;;;;;;;13.77;2.78;;;23.30;99.90;;;;;;5029232;28;20041;-57
2022/06/11 10:20:00;;;;;;;11.95;2.83;;;22.90;99.90;;;;;;5053258;28;20055;-57
2022/06/11 10:22:37;;;;;;;13.73;3.35;;;23.00;99.90;;;;;;5057989;28;20052;-57
2022/06/11 10:25:15;;;;;;;14.30;3.00;;;23.00;99.90;;;;;;5072407;28;20044;-57
2022/06/11 10:27:47;;;;;;;16.13;3.05;;;23.00;99.90;;;;;;5075627;28;20045;-56
2022/06/11 10:30:27;;;;;;;16.90;3.55;;;23.10;99.90;;;;;;5075421;28;20060;-57
2022/06/11 10:32:55;;;;;;;13.43;3.17;;;23.40;99.90;;;;;;5075314;28;20048;-57
2022/06/11 10:35:25;;;;;;;11.55;3.22;;;23.70;99.90;;;;;;5070878;28;20037;-57
2022/06/11 10:37:51;;;;;;;13.95;3.58;;;24.00;99.90;;;;;;5056134;28;20384;-57
2022/06/11 10:40:26;;;;;;;9.80;2.95;;;24.40;99.90;;;;;;5073658;28;20040;-57
2022/06/11 10:42:57;;;;;;;9.50;2.78;;;24.70;99.90;;;;;;5074429;28;20041;-57
2022/06/11 10:45:23;;;;;;;10.40;3.00;;;25.00;99.90;;;;;;5071636;28;20493;-57
2022/06/11 10:47:52;;;;;;;10.95;2.95;;;24.90;99.90;;;;;;5073529;28;20079;-57
2022/06/11 10:50:23;;;;;;;;;;;25.20;99.80;;;;;;5075178;28;20107;-58
2022/06/11 10:53:05;;;;;;;13.52;2.85;;;25.50;99.90;;;;;;5074155;28;19920;-57
2022/06/11 10:55:54;;;;;;;13.73;3.78;;;25.50;98.90;;;;;;5072899;28;20051;-58
2022/06/11 10:58:42;;;;;;;14.70;3.00;;;25.00;98.90;;;;;;5036471;28;20037;-57
2022/06/11 11:01:16;;;;;;;11.32;2.60;;;25.20;99.90;;;;;;5071432;28;20048;-57
2022/06/11 11:03:44;;;;;;;8.23;2.75;;;25.00;99.90;;;;;;5074652;28;20044;-58
2022/06/11 11:06:32;;;;;;;10.35;3.17;;;25.00;99.90;;;;;;5073349;28;20414;-58
2022/06/11 11:09:03;;;;;;;13.65;3.40;;;24.60;99.90;;;;;;5074562;28;20105;-58
2022/06/11 11:11:50;;;;;;;11.13;3.35;;;24.90;99.90;;;;;;5074323;28;20045;-57
2022/06/11 11:14:39;;;;;;;11.48;3.17;;;25.10;99.90;;;;;;5074651;28;20048;-58
2022/06/11 11:17:17;;;;;;;12.25;2.80;;;25.20;99.90;;;;;;5072899;28;20044;-58
2022/06/11 11:20:29;;;;;;;10.93;3.13;;;25.10;99.90;;;;;;5074137;28;20059;-58
2022/06/11 11:22:34;;;;;;;10.90;3.47;;;25.20;99.90;;;;;;5074262;28;20353;-57
2022/06/11 11:25:01;;;;;;;10.00;2.35;;;25.20;99.20;;;;;;5074078;28;20055;-58
2022/06/11 11:27:34;;;;;;;10.48;3.03;;;25.40;99.90;;;;;;5074147;28;20036;-57
2022/06/11 11:30:31;;;;;;;9.98;2.67;;;25.20;98.90;;;;;;5074350;28;20451;-57
2022/06/11 11:33:31;;;;;;;9.05;2.80;;;25.50;99.00;;;;;;5008953;28;20077;-57
2022/06/11 11:36:13;;;;;;;9.90;2.83;;;25.90;98.70;;;;;;4984216;28;20057;-57
2022/06/11 11:38:40;;;;;;;9.95;2.80;;;25.90;98.30;;;;;;4989953;28;20119;-56
2022/06/11 11:41:06;;;;;;;12.05;3.03;;;25.70;98.90;;;;;;4992722;28;20141;-56
2022/06/11 11:43:37;;;;;;;11.95;3.05;;;25.20;98.80;;;;;;4992633;28;20070;-58
2022/06/11 11:46:24;;;;;;;11.30;2.53;;;25.20;98.90;;;;;;4993263;28;20046;-57
2022/06/11 11:48:55;;;;;;;9.93;3.33;;;25.40;99.30;;;;;;4992744;28;20050;-56
2022/06/11 11:51:31;;;;;;;10.32;3.45;;;25.50;98.00;;;;;;4992098;28;20054;-56
2022/06/11 11:54:17;;;;;;;24.83;3.42;;;25.50;98.20;;;;;;4992418;28;20049;-57
2022/06/11 11:56:56;;;;;;;8.45;2.38;;;25.50;99.30;;;;;;4992085;28;20057;-57
2022/06/11 11:59:27;;;;;;;10.93;2.88;;;25.80;97.60;;;;;;4976066;28;20062;-57
2022/06/11 12:01:56;;;;;;;7.30;2.17;;;25.50;98.50;;;;;;4992135;28;20062;-57
2022/06/11 12:04:35;;;;;;;10.52;3.40;;;25.70;99.20;;;;;;4992383;28;20038;-57
2022/06/11 12:07:05;;;;;;;12.70;2.88;;;25.70;98.70;;;;;;4991964;28;20057;-56
2022/06/11 12:09:50;;;;;;;8.60;2.40;;;25.50;97.90;;;;;;5011648;28;20539;-56
2022/06/11 12:12:26;;;;;;;9.55;2.25;;;25.40;98.80;;;;;;5070295;28;20045;-56
2022/06/11 12:15:01;;;;;;;8.07;2.08;;;25.00;98.40;;;;;;5073429;28;20041;-57
2022/06/11 12:17:42;;;;;;;7.65;2.10;;;24.60;97.00;;;;;;5073097;28;20433;-57
2022/06/11 12:20:31;;;;;;;10.15;2.78;;;24.40;98.20;;;;;;5055536;28;20431;-57
2022/06/11 12:23:15;;;;;;;7.80;2.53;;;24.90;97.40;;;;;;5060456;28;20052;-57
2022/06/11 12:26:10;;;;;;;10.13;2.45;;;25.40;97.90;;;;;;5073051;28;20056;-57
2022/06/11 12:28:52;;;;;;;10.13;2.53;;;25.50;99.10;;;;;;5072698;28;20057;-57
2022/06/11 12:31:18;;;;;;;6.57;2.65;;;25.50;97.80;;;;;;5072770;28;20575;-57
2022/06/11 12:33:47;;;;;;;6.00;2.17;;;25.70;98.10;;;;;;5073310;28;20082;-57
2022/06/11 12:36:46;;;;;;;7.95;2.30;;;25.60;98.50;;;;;;5072955;28;20045;-56
2022/06/11 12:39:18;;;;;;;10.95;2.47;;;25.40;98.00;;;;;;5072797;28;20490;-56
2022/06/11 12:41:43;;;;;;;10.52;2.78;;;25.40;98.30;;;;;;5073069;28;20131;-57
2022/06/11 12:44:27;;;;;;;9.90;2.33;;;25.40;97.70;;;;;;5072930;28;20127;-57
2022/06/11 12:47:08;;;;;;;8.70;2.40;;;25.40;97.30;;;;;;5060369;28;20048;-56
2022/06/11 12:49:50;;;;;;;8.27;1.95;;;25.40;98.70;;;;;;5072698;28;20048;-56
2022/06/11 12:52:37;;;;;;;8.10;2.30;;;25.40;98.40;;;;;;5072442;28;20556;-57
2022/06/11 12:55:06;;;;;;;11.50;2.63;;;25.50;99.00;;;;;;5072389;28;20560;-57
2022/06/11 12:57:56;;;;;;;7.60;2.42;;;25.40;97.60;;;;;;5072707;28;20071;-57
2022/06/11 13:00:42;;;;;;;8.18;2.03;;;25.50;98.90;;;;;;5072925;28;20397;-57
2022/06/11 13:03:32;;;;;;;11.50;2.38;;;25.70;98.40;;;;;;5072324;28;20043;-57
2022/06/11 13:06:28;;;;;;;8.05;2.25;;;25.80;97.90;;;;;;5072795;28;20395;-57
2022/06/11 13:09:14;;;;;;;8.77;2.35;;;25.80;97.90;;;;;;5059504;28;20560;-57
2022/06/11 13:11:58;;;;;;;5.95;1.58;;;25.60;97.00;;;;;;5071895;28;20063;-57